createdAt,value
2017-07-29T00:00:21.243Z,5.23
2017-07-29T00:02:47.624Z,5.53
2017-07-29T00:05:13.992Z,5.47
2017-07-29T00:07:40.375Z,4.83
2017-07-29T00:10:06.733Z,5.27
2017-07-29T00:12:33.153Z,6.00
2017-07-29T00:15:00.279Z,4.70
2017-07-29T00:17:28.479Z,5.10
2017-07-29T00:19:54.963Z,4.60
2017-07-29T00:22:22.074Z,4.50
2017-07-29T00:24:48.475Z,5.43
2017-07-29T00:27:14.856Z,4.60
2017-07-29T00:29:41.243Z,4.40
2017-07-29T00:32:07.659Z,4.40
2017-07-29T00:34:34.035Z,5.20
2017-07-29T00:37:00.419Z,4.53
2017-07-29T00:39:26.890Z,4.23
2017-07-29T00:41:53.655Z,4.20
2017-07-29T00:44:20.031Z,4.40
2017-07-29T00:46:47.191Z,3.60
2017-07-29T00:49:13.559Z,4.07
2017-07-29T00:51:39.919Z,4.63
2017-07-29T00:54:06.291Z,4.10
2017-07-29T00:56:32.700Z,5.10
2017-07-29T00:58:59.103Z,3.50
2017-07-29T01:01:25.451Z,3.97
2017-07-29T01:03:51.847Z,4.30
2017-07-29T01:06:18.277Z,3.93
2017-07-29T01:08:44.647Z,3.70
2017-07-29T01:11:11.068Z,3.60
2017-07-29T01:13:37.479Z,3.70
2017-07-29T01:16:03.851Z,3.80
2017-07-29T01:18:30.275Z,4.70
2017-07-29T01:20:57.420Z,3.97
2017-07-29T01:23:23.803Z,4.20
2017-07-29T01:28:26.180Z,3.40
2017-07-29T01:30:52.603Z,3.50
2017-07-29T01:33:19.803Z,3.50
2017-07-29T01:35:46.903Z,3.60
2017-07-29T01:38:14.047Z,3.00
2017-07-29T01:40:40.477Z,3.40
2017-07-29T01:43:07.615Z,4.57
2017-07-29T01:45:34.045Z,3.00
2017-07-29T01:48:00.471Z,3.30
2017-07-29T01:50:26.867Z,3.37
2017-07-29T01:52:53.353Z,4.20
2017-07-29T01:55:19.732Z,3.60
2017-07-29T01:57:46.123Z,4.00
2017-07-29T02:00:12.570Z,3.37
2017-07-29T02:02:38.967Z,2.97
2017-07-29T02:05:05.443Z,3.53
2017-07-29T02:07:32.639Z,3.10
2017-07-29T02:09:59.039Z,4.70
2017-07-29T02:12:25.435Z,3.40
2017-07-29T02:14:51.855Z,3.60
2017-07-29T02:17:18.964Z,4.07
2017-07-29T02:19:45.363Z,3.37
2017-07-29T02:22:11.763Z,3.43
2017-07-29T02:27:14.871Z,3.87
2017-07-29T02:29:41.246Z,3.10
2017-07-29T02:32:07.591Z,3.27
2017-07-29T02:34:33.904Z,3.30
2017-07-29T02:37:00.182Z,3.73
2017-07-29T02:39:26.482Z,4.10
2017-07-29T02:41:52.766Z,3.57
2017-07-29T02:44:19.034Z,3.10
2017-07-29T02:46:45.318Z,3.70
2017-07-29T02:49:12.346Z,3.63
2017-07-29T02:51:38.615Z,4.10
2017-07-29T02:54:04.882Z,3.83
2017-07-29T02:56:31.193Z,4.23
2017-07-29T02:58:57.462Z,4.00
2017-07-29T03:01:23.739Z,3.30
2017-07-29T03:03:50.022Z,3.07
2017-07-29T03:06:17.330Z,3.40
2017-07-29T03:08:43.626Z,4.20
2017-07-29T03:11:09.922Z,3.63
2017-07-29T03:13:36.259Z,3.00
2017-07-29T03:16:02.530Z,3.23
2017-07-29T03:18:29.581Z,3.23
2017-07-29T03:20:55.826Z,3.63
2017-07-29T03:23:22.109Z,3.60
2017-07-29T03:25:48.406Z,4.10
2017-07-29T03:28:15.413Z,3.67
2017-07-29T03:30:41.695Z,2.90
2017-07-29T03:33:07.982Z,3.53
2017-07-29T03:35:34.242Z,3.80
2017-07-29T03:38:00.542Z,4.70
2017-07-29T03:40:26.833Z,3.27
2017-07-29T03:42:53.117Z,2.83
2017-07-29T03:45:19.370Z,3.40
2017-07-29T03:47:46.646Z,3.87
2017-07-29T03:50:12.935Z,3.23
2017-07-29T03:52:39.215Z,3.00
2017-07-29T03:55:05.518Z,3.13
2017-07-29T03:57:32.518Z,3.10
2017-07-29T03:59:58.781Z,3.93
2017-07-29T04:02:25.070Z,3.00
2017-07-29T04:04:51.330Z,3.10
2017-07-29T04:07:17.594Z,4.00
2017-07-29T04:09:43.904Z,2.90
2017-07-29T04:12:10.155Z,3.33
2017-07-29T04:14:36.434Z,4.00
2017-07-29T04:17:02.768Z,3.73
2017-07-29T04:19:29.756Z,3.77
2017-07-29T04:21:56.044Z,3.90
2017-07-29T04:24:22.332Z,3.20
2017-07-29T04:26:48.586Z,3.83
2017-07-29T04:29:14.878Z,3.37
2017-07-29T04:31:41.178Z,4.17
2017-07-29T04:34:07.426Z,3.27
2017-07-29T04:36:33.694Z,3.50
2017-07-29T04:38:59.986Z,3.63
2017-07-29T04:41:26.322Z,3.00
2017-07-29T04:43:52.571Z,4.80
2017-07-29T04:46:18.858Z,3.73
2017-07-29T04:48:45.162Z,3.50
2017-07-29T04:51:11.442Z,4.30
2017-07-29T04:53:37.751Z,3.53
2017-07-29T04:56:05.003Z,4.03
2017-07-29T04:58:31.254Z,3.83
2017-07-29T05:00:57.559Z,3.70
2017-07-29T05:03:23.830Z,3.73
2017-07-29T05:05:50.080Z,3.67
2017-07-29T05:08:16.382Z,4.10
2017-07-29T05:10:42.649Z,3.80
2017-07-29T05:13:08.943Z,3.00
2017-07-29T05:15:35.513Z,3.90
2017-07-29T05:18:01.762Z,4.07
2017-07-29T05:20:28.042Z,3.57
2017-07-29T05:22:54.318Z,4.20
2017-07-29T05:25:20.621Z,3.47
2017-07-29T05:27:46.889Z,4.00
2017-07-29T05:30:13.194Z,3.27
2017-07-29T05:32:39.603Z,3.33
2017-07-29T05:35:05.894Z,3.73
2017-07-29T05:37:32.910Z,3.70
2017-07-29T05:39:59.210Z,3.93
2017-07-29T05:42:25.487Z,3.60
2017-07-29T05:44:51.771Z,3.63
2017-07-29T05:47:18.042Z,3.30
2017-07-29T05:49:45.279Z,3.70
2017-07-29T05:52:11.560Z,3.37
2017-07-29T05:54:37.841Z,3.60
2017-07-29T05:57:04.106Z,3.97
2017-07-29T05:59:30.390Z,3.20
2017-07-29T06:01:57.450Z,3.97
2017-07-29T06:04:23.726Z,3.80
2017-07-29T06:06:50.010Z,3.17
2017-07-29T06:09:16.311Z,4.17
2017-07-29T06:11:42.598Z,3.63
2017-07-29T06:14:08.895Z,3.47
2017-07-29T06:16:35.245Z,4.20
2017-07-29T06:19:01.498Z,3.20
2017-07-29T06:21:29.537Z,2.67
2017-07-29T06:23:55.802Z,2.90
2017-07-29T06:26:22.086Z,4.23
2017-07-29T06:28:48.419Z,3.60
2017-07-29T06:31:14.706Z,3.37
2017-07-29T06:33:40.982Z,4.00
2017-07-29T06:36:07.275Z,3.10
2017-07-29T06:38:33.554Z,3.60
2017-07-29T06:40:59.850Z,3.90
2017-07-29T06:43:26.874Z,3.77
2017-07-29T06:45:54.227Z,3.80
2017-07-29T06:48:20.575Z,3.10
2017-07-29T06:50:46.887Z,4.00
2017-07-29T06:53:13.171Z,3.60
2017-07-29T06:55:40.195Z,3.67
2017-07-29T06:58:06.951Z,3.60
2017-07-29T07:00:33.496Z,3.10
2017-07-29T07:02:59.965Z,2.80
2017-07-29T07:05:26.347Z,3.13
2017-07-29T07:07:52.767Z,3.37
2017-07-29T07:10:19.195Z,3.27
2017-07-29T07:12:46.402Z,3.60
2017-07-29T07:15:12.862Z,2.63
2017-07-29T07:17:39.964Z,3.40
2017-07-29T07:20:07.179Z,3.10
2017-07-29T07:22:33.552Z,2.50
2017-07-29T07:24:59.931Z,3.37
2017-07-29T07:27:27.115Z,3.23
2017-07-29T07:29:54.187Z,3.60
2017-07-29T07:32:20.672Z,3.43
2017-07-29T07:34:47.092Z,3.10
2017-07-29T07:37:13.474Z,3.00
2017-07-29T07:39:39.866Z,2.80
2017-07-29T07:42:06.315Z,3.30
2017-07-29T07:44:33.817Z,3.23
2017-07-29T07:47:00.244Z,2.73
2017-07-29T07:49:26.659Z,3.23
2017-07-29T07:51:53.051Z,2.77
2017-07-29T07:54:19.435Z,2.40
2017-07-29T07:56:45.813Z,2.83
2017-07-29T07:59:12.211Z,2.50
2017-07-29T08:01:39.648Z,2.60
2017-07-29T08:04:06.073Z,2.53
2017-07-29T08:06:34.784Z,2.70
2017-07-29T08:09:01.199Z,3.00
2017-07-29T08:11:27.575Z,2.00
2017-07-29T08:13:54.015Z,2.63
2017-07-29T08:16:20.437Z,2.20
2017-07-29T08:18:46.833Z,2.70
2017-07-29T08:21:13.332Z,1.90
2017-07-29T08:23:39.748Z,2.33
2017-07-29T08:26:06.575Z,2.30
2017-07-29T08:28:33.025Z,2.47
2017-07-29T08:30:59.421Z,2.70
2017-07-29T08:33:25.832Z,2.40
2017-07-29T08:35:52.206Z,2.47
2017-07-29T08:38:19.319Z,2.13
2017-07-29T08:40:46.463Z,2.37
2017-07-29T08:43:12.819Z,2.43
2017-07-29T08:45:39.190Z,2.13
2017-07-29T08:48:06.687Z,2.27
2017-07-29T08:50:33.032Z,3.10
2017-07-29T08:52:59.411Z,2.03
2017-07-29T08:55:25.864Z,1.80
2017-07-29T08:57:52.259Z,2.23
2017-07-29T09:00:18.689Z,1.60
2017-07-29T09:02:45.071Z,2.10
2017-07-29T09:05:11.559Z,1.97
2017-07-29T09:07:37.987Z,1.80
2017-07-29T09:10:04.407Z,1.90
2017-07-29T09:12:30.794Z,2.00
2017-07-29T09:14:57.139Z,1.83
2017-07-29T09:17:23.520Z,1.80
2017-07-29T09:19:49.903Z,3.40
2017-07-29T09:22:17.258Z,1.90
2017-07-29T09:24:43.639Z,2.30
2017-07-29T09:27:09.981Z,1.60
2017-07-29T09:29:37.075Z,2.10
2017-07-29T09:32:03.467Z,1.87
2017-07-29T09:34:30.911Z,1.87
2017-07-29T09:36:57.251Z,1.73
2017-07-29T09:39:23.646Z,1.57
2017-07-29T09:41:50.020Z,1.80
2017-07-29T09:44:16.403Z,1.80
2017-07-29T09:46:42.827Z,1.73
2017-07-29T09:49:09.210Z,1.40
2017-07-29T09:51:35.577Z,1.70
2017-07-29T09:54:02.663Z,1.37
2017-07-29T09:56:29.015Z,1.70
2017-07-29T09:58:55.419Z,1.90
2017-07-29T10:01:21.820Z,1.33
2017-07-29T10:03:48.239Z,1.67
2017-07-29T10:06:14.597Z,1.70
2017-07-29T10:08:40.995Z,1.93
2017-07-29T10:11:07.391Z,1.30
2017-07-29T10:13:33.792Z,1.87
2017-07-29T10:16:01.176Z,1.73
2017-07-29T10:18:28.303Z,1.80
2017-07-29T10:20:54.691Z,1.80
2017-07-29T10:23:21.085Z,1.53
2017-07-29T10:25:47.484Z,2.10
2017-07-29T10:28:14.583Z,2.10
2017-07-29T10:30:41.675Z,1.60
2017-07-29T10:33:08.059Z,1.90
2017-07-29T10:35:34.439Z,1.83
2017-07-29T10:38:01.581Z,1.70
2017-07-29T10:40:27.959Z,1.57
2017-07-29T10:42:54.398Z,1.20
2017-07-29T10:45:20.857Z,1.57
2017-07-29T10:47:47.939Z,1.33
2017-07-29T10:50:14.282Z,1.67
2017-07-29T10:52:41.412Z,1.40
2017-07-29T10:55:07.791Z,1.20
2017-07-29T10:57:34.887Z,1.70
2017-07-29T11:00:02.020Z,1.60
2017-07-29T11:02:28.403Z,1.87
2017-07-29T11:04:54.751Z,1.70
2017-07-29T11:07:21.867Z,1.60
2017-07-29T11:09:48.267Z,2.13
2017-07-29T11:12:15.606Z,1.83
2017-07-29T11:14:42.023Z,1.90
2017-07-29T11:17:08.410Z,1.63
2017-07-29T11:19:35.542Z,1.90
2017-07-29T11:22:01.952Z,1.30
2017-07-29T11:24:29.095Z,2.27
2017-07-29T11:26:55.506Z,1.67
2017-07-29T11:29:21.961Z,1.73
2017-07-29T11:31:49.435Z,1.70
2017-07-29T11:34:15.783Z,2.27
2017-07-29T11:36:42.187Z,1.57
2017-07-29T11:39:09.321Z,1.50
2017-07-29T11:41:36.407Z,1.70
2017-07-29T11:44:02.811Z,2.27
2017-07-29T11:46:29.191Z,1.40
2017-07-29T11:48:56.293Z,1.40
2017-07-29T11:51:22.695Z,1.20
2017-07-29T11:53:49.063Z,1.30
2017-07-29T11:56:15.438Z,1.13
2017-07-29T11:58:41.812Z,0.93
2017-07-29T12:01:08.198Z,1.07
2017-07-29T12:03:34.623Z,1.23
2017-07-29T12:06:01.000Z,0.97
2017-07-29T12:08:27.389Z,0.60
2017-07-29T12:10:53.762Z,1.20
2017-07-29T12:13:20.150Z,0.70
2017-07-29T12:15:46.503Z,0.77
2017-07-29T12:18:13.647Z,2.30
2017-07-29T12:20:40.044Z,1.33
2017-07-29T12:23:07.175Z,2.13
2017-07-29T12:25:34.279Z,1.40
2017-07-29T12:28:00.687Z,1.50
2017-07-29T12:30:27.073Z,1.23
2017-07-29T12:32:55.483Z,1.10
2017-07-29T12:35:22.010Z,0.70
2017-07-29T12:37:48.488Z,0.90
2017-07-29T12:40:14.878Z,0.83
2017-07-29T12:42:41.287Z,1.43
2017-07-29T12:45:07.629Z,0.87
2017-07-29T12:47:34.027Z,1.10
2017-07-29T12:50:00.439Z,0.83
2017-07-29T12:52:26.767Z,1.00
2017-07-29T12:54:53.139Z,1.93
2017-07-29T12:57:20.252Z,1.00
2017-07-29T12:59:46.660Z,1.30
2017-07-29T13:02:13.039Z,1.00
2017-07-29T13:04:39.444Z,1.80
2017-07-29T13:07:05.768Z,1.27
2017-07-29T13:09:32.078Z,1.30
2017-07-29T13:11:58.370Z,1.20
2017-07-29T13:14:24.622Z,1.40
2017-07-29T13:16:50.923Z,1.43
2017-07-29T13:19:17.202Z,1.37
2017-07-29T13:21:43.490Z,1.20
2017-07-29T13:24:09.746Z,1.30
2017-07-29T13:26:36.018Z,1.20
2017-07-29T13:29:02.307Z,1.30
2017-07-29T13:31:28.574Z,1.37
2017-07-29T13:33:54.862Z,1.53
2017-07-29T13:36:21.133Z,1.13
2017-07-29T13:38:47.405Z,1.17
2017-07-29T13:41:13.715Z,1.47
2017-07-29T13:43:39.963Z,1.27
2017-07-29T13:46:06.225Z,1.50
2017-07-29T13:48:32.550Z,1.10
2017-07-29T13:50:58.859Z,1.00
2017-07-29T13:53:25.160Z,1.73
2017-07-29T13:55:51.447Z,1.10
2017-07-29T13:58:17.741Z,0.93
2017-07-29T14:00:44.058Z,0.97
2017-07-29T14:03:10.363Z,1.07
2017-07-29T14:05:36.634Z,0.70
2017-07-29T14:08:02.882Z,0.90
2017-07-29T14:10:29.226Z,0.70
2017-07-29T14:12:55.522Z,1.00
2017-07-29T14:15:21.758Z,1.07
2017-07-29T14:17:48.761Z,0.90
2017-07-29T14:20:15.038Z,0.90
2017-07-29T14:22:41.298Z,1.10
2017-07-29T14:25:07.594Z,0.63
2017-07-29T14:27:33.915Z,0.63
2017-07-29T14:30:00.183Z,0.90
2017-07-29T14:32:26.501Z,1.00
2017-07-29T14:34:52.912Z,1.03
2017-07-29T14:37:19.170Z,1.57
2017-07-29T14:39:45.474Z,0.93
2017-07-29T14:42:11.743Z,0.80
2017-07-29T14:44:38.001Z,0.90
2017-07-29T14:47:04.347Z,1.00
2017-07-29T14:49:31.658Z,0.90
2017-07-29T14:51:57.922Z,1.10
2017-07-29T14:54:24.263Z,1.33
2017-07-29T14:56:51.282Z,1.10
2017-07-29T14:59:17.551Z,0.70
2017-07-29T15:01:43.843Z,1.23
2017-07-29T15:04:10.108Z,1.00
2017-07-29T15:06:36.378Z,0.90
2017-07-29T15:09:02.739Z,1.30
2017-07-29T15:11:28.995Z,1.47
2017-07-29T15:13:55.286Z,1.43
2017-07-29T15:16:21.590Z,0.90
2017-07-29T15:18:48.599Z,1.10
2017-07-29T15:21:14.851Z,0.87
2017-07-29T15:23:41.130Z,1.77
2017-07-29T15:26:07.386Z,1.17
2017-07-29T15:28:33.673Z,1.20
2017-07-29T15:30:59.993Z,1.20
2017-07-29T15:33:26.269Z,0.80
2017-07-29T15:35:52.545Z,2.23
2017-07-29T15:38:19.854Z,1.10
2017-07-29T15:40:46.124Z,1.43
2017-07-29T15:43:12.494Z,1.53
2017-07-29T15:45:38.863Z,1.40
2017-07-29T15:48:05.234Z,1.73
2017-07-29T15:53:08.339Z,1.30
2017-07-29T15:55:35.091Z,1.20
2017-07-29T15:58:01.469Z,0.90
2017-07-29T16:00:27.895Z,1.40
2017-07-29T16:02:54.279Z,1.67
2017-07-29T16:05:20.619Z,1.10
2017-07-29T16:07:47.027Z,1.30
2017-07-29T16:10:13.421Z,1.30
2017-07-29T16:12:39.812Z,1.53
2017-07-29T16:15:06.219Z,1.30
2017-07-29T16:17:33.421Z,1.50
2017-07-29T16:19:59.872Z,1.53
2017-07-29T16:22:26.291Z,1.50
2017-07-29T16:24:53.403Z,3.90
2017-07-29T16:27:19.896Z,1.67
2017-07-29T16:29:46.283Z,1.10
2017-07-29T16:32:12.682Z,1.07
2017-07-29T16:34:39.112Z,1.37
2017-07-29T16:37:05.535Z,1.10
2017-07-29T16:39:31.931Z,1.03
2017-07-29T16:41:58.343Z,1.37
2017-07-29T16:44:24.739Z,1.17
2017-07-29T16:46:51.136Z,1.20
2017-07-29T16:49:17.591Z,1.80
2017-07-29T16:51:45.091Z,1.30
2017-07-29T16:54:11.500Z,1.57
2017-07-29T16:56:37.890Z,1.13
2017-07-29T16:59:04.290Z,1.27
2017-07-29T17:01:30.654Z,1.00
2017-07-29T17:03:57.075Z,1.37
2017-07-29T17:06:23.466Z,1.67
2017-07-29T17:08:49.884Z,1.43
2017-07-29T17:11:16.206Z,1.10
2017-07-29T17:13:42.632Z,1.30
2017-07-29T17:16:09.112Z,1.00
2017-07-29T17:18:35.472Z,1.67
2017-07-29T17:21:01.887Z,1.33
2017-07-29T17:23:28.277Z,1.80
2017-07-29T17:25:54.656Z,1.70
2017-07-29T17:28:21.080Z,1.30
2017-07-29T17:30:47.415Z,1.43
2017-07-29T17:33:13.815Z,1.60
2017-07-29T17:35:40.221Z,1.77
2017-07-29T17:38:06.717Z,2.00
2017-07-29T17:40:33.127Z,1.67
2017-07-29T17:42:59.593Z,2.00
2017-07-29T17:45:25.963Z,1.80
2017-07-29T17:47:52.403Z,1.73
2017-07-29T17:50:18.784Z,1.80
2017-07-29T17:52:45.172Z,1.97
2017-07-29T17:55:12.344Z,1.97
2017-07-29T17:57:38.729Z,1.80
2017-07-29T18:00:05.899Z,1.80
2017-07-29T18:02:32.478Z,1.67
2017-07-29T18:04:58.817Z,2.20
2017-07-29T18:07:25.834Z,3.03
2017-07-29T18:09:52.134Z,2.03
2017-07-29T18:12:18.447Z,2.60
2017-07-29T18:14:44.706Z,2.10
2017-07-29T18:17:11.027Z,1.80
2017-07-29T18:19:37.326Z,2.00
2017-07-29T18:22:03.579Z,1.77
2017-07-29T18:24:29.850Z,1.70
2017-07-29T18:26:56.150Z,2.37
2017-07-29T18:29:22.398Z,2.30
2017-07-29T18:31:48.751Z,2.47
2017-07-29T18:34:17.959Z,1.83
2017-07-29T18:36:44.234Z,2.07
2017-07-29T18:39:10.525Z,2.80
2017-07-29T18:41:36.844Z,3.10
2017-07-29T18:44:05.222Z,2.10
2017-07-29T18:46:31.474Z,2.77
2017-07-29T18:48:58.555Z,2.10
2017-07-29T18:51:24.880Z,2.53
2017-07-29T18:53:51.182Z,2.57
2017-07-29T18:56:17.500Z,2.37
2017-07-29T18:58:43.819Z,2.90
2017-07-29T19:01:10.132Z,2.80
2017-07-29T19:03:36.411Z,2.60
2017-07-29T19:06:03.476Z,2.23
2017-07-29T19:08:29.758Z,2.60
2017-07-29T19:10:56.058Z,2.00
2017-07-29T19:13:23.103Z,2.70
2017-07-29T19:15:49.543Z,2.20
2017-07-29T19:18:15.938Z,2.47
2017-07-29T19:20:42.307Z,2.23
2017-07-29T19:23:09.508Z,2.50
2017-07-29T19:25:35.903Z,3.03
2017-07-29T19:28:02.259Z,2.80
2017-07-29T19:30:28.683Z,2.27
2017-07-29T19:32:56.979Z,2.47
2017-07-29T19:35:24.083Z,2.50
2017-07-29T19:37:50.455Z,5.10
2017-07-29T19:40:16.879Z,7.23
2017-07-29T19:42:43.247Z,5.00
2017-07-29T19:45:10.375Z,3.70
2017-07-29T19:47:36.775Z,2.87
2017-07-29T19:50:03.191Z,2.90
2017-07-29T19:52:29.627Z,3.37
2017-07-29T19:54:56.012Z,2.80
2017-07-29T19:57:22.440Z,2.77
2017-07-29T19:59:48.828Z,3.20
2017-07-29T20:02:15.210Z,3.30
2017-07-29T20:04:41.599Z,3.70
2017-07-29T20:07:18.135Z,3.30
2017-07-29T20:09:44.571Z,3.07
2017-07-29T20:12:11.711Z,2.70
2017-07-29T20:14:38.839Z,2.73
2017-07-29T20:17:05.300Z,3.63
2017-07-29T20:19:31.691Z,2.90
2017-07-29T20:21:58.775Z,2.97
2017-07-29T20:24:25.915Z,3.87
2017-07-29T20:26:52.295Z,3.13
2017-07-29T20:29:18.659Z,2.87
2017-07-29T20:31:45.875Z,3.80
2017-07-29T20:34:12.259Z,3.87
2017-07-29T20:36:38.647Z,3.67
2017-07-29T20:39:05.093Z,3.43
2017-07-29T20:41:31.452Z,3.33
2017-07-29T20:43:57.859Z,3.50
2017-07-29T20:46:24.244Z,2.87
2017-07-29T20:48:50.587Z,3.53
2017-07-29T20:51:18.002Z,3.47
2017-07-29T20:53:44.404Z,3.30
2017-07-29T20:56:10.762Z,3.73
2017-07-29T20:58:37.911Z,3.10
2017-07-29T21:01:04.411Z,3.30
2017-07-29T21:03:30.811Z,3.37
2017-07-29T21:05:57.217Z,3.10
2017-07-29T21:08:23.607Z,3.63
2017-07-29T21:10:49.971Z,3.07
2017-07-29T21:13:16.453Z,3.17
2017-07-29T21:15:42.815Z,3.30
2017-07-29T21:18:09.224Z,3.10
2017-07-29T21:20:35.625Z,3.23
2017-07-29T21:23:02.033Z,3.60
2017-07-29T21:25:28.467Z,3.30
2017-07-29T21:27:54.867Z,3.87
2017-07-29T21:30:21.247Z,4.33
2017-07-29T21:32:47.600Z,3.63
2017-07-29T21:35:13.983Z,3.10
2017-07-29T21:37:40.387Z,3.70
2017-07-29T21:40:06.779Z,3.43
2017-07-29T21:42:33.187Z,2.73
2017-07-29T21:44:59.759Z,3.63
2017-07-29T21:47:27.240Z,2.70
2017-07-29T21:49:53.647Z,3.03
2017-07-29T21:52:19.986Z,3.73
2017-07-29T21:54:46.387Z,3.90
2017-07-29T21:57:12.786Z,3.20
2017-07-29T21:59:39.131Z,4.20
2017-07-29T22:02:05.488Z,3.63
2017-07-29T22:04:32.629Z,3.80
2017-07-29T22:06:59.743Z,3.53
2017-07-29T22:09:26.159Z,4.23
2017-07-29T22:11:52.552Z,3.90
2017-07-29T22:14:18.911Z,3.70
2017-07-29T22:16:45.326Z,3.73
2017-07-29T22:19:11.717Z,4.07
2017-07-29T22:21:38.107Z,4.20
2017-07-29T22:24:04.488Z,3.13
2017-07-29T22:26:31.707Z,4.20
2017-07-29T22:28:58.072Z,3.63
2017-07-29T22:31:24.491Z,3.83
2017-07-29T22:33:50.839Z,3.53
2017-07-29T22:36:17.434Z,3.30
2017-07-29T22:38:43.911Z,3.37
2017-07-29T22:41:10.239Z,3.83
2017-07-29T22:43:36.655Z,3.77
2017-07-29T22:46:03.057Z,4.53
2017-07-29T22:48:29.443Z,3.80
2017-07-29T22:50:55.780Z,3.10
2017-07-29T22:53:22.215Z,3.93
2017-07-29T22:55:48.595Z,3.33
2017-07-29T22:58:15.702Z,3.80
2017-07-29T23:00:42.098Z,3.33
2017-07-29T23:03:08.505Z,3.60
2017-07-29T23:05:34.859Z,3.43
2017-07-29T23:08:01.336Z,5.23
2017-07-29T23:10:27.695Z,3.70
2017-07-29T23:12:54.827Z,4.43
2017-07-29T23:15:21.959Z,4.33
2017-07-29T23:17:48.344Z,3.60
2017-07-29T23:20:14.707Z,3.70
2017-07-29T23:22:41.123Z,4.10
2017-07-29T23:25:08.249Z,4.10
2017-07-29T23:27:34.663Z,4.33
2017-07-29T23:30:02.822Z,4.07
2017-07-29T23:32:29.235Z,3.93
2017-07-29T23:34:55.591Z,3.83
2017-07-29T23:37:21.987Z,3.87
2017-07-29T23:39:49.111Z,4.77
2017-07-29T23:42:15.480Z,4.30
2017-07-29T23:44:41.890Z,4.43
2017-07-29T23:47:08.267Z,5.00
2017-07-29T23:49:35.355Z,4.83
2017-07-29T23:52:01.769Z,4.30
2017-07-29T23:54:28.165Z,4.10
2017-07-29T23:56:54.583Z,4.50
2017-07-29T23:59:21.326Z,4.20
